Decoded Metar for CYUY (ROUYN in QC, CANADA) (IATA:YUY) | Meteo·Mobile Aviation Weather
aviador You're here:

CYUY Decoded Metar

ROUYN in QC, CANADA
Report Time2019-03-21 02:00:00
UTC Time2019-03-21 02:25:03
Flight Rules vfr VFR
Wind200° at 09 kt
W.Decomp.*RWY 26: 6.1 kt HW 6.6 kt LCW
W.Rank200° ranks 3
Current wind is above 200° avg. (7.1)
Visibility9999 m
Phenomena:N/A
Clouds:Few 019 Hf
Overcast 051 Hf
Expected CloudBase > 800 ft AGL from Temp-Dew spread
Ceiling5,100 ft
Temp02°C (ISA -11)
Dew Point00°C (87% RH)
AAT-3.2°C
QNH1015 hPa
Density Alt-331 ft
Elevation988 ft
Report Wrong Elevation
Raw Report
CYUY 210200Z 20009KT 10SM -RASN FEW019 OVC051 02/M00 A2996 RMK
SC1SC7 SLP163=

Extra information for CYUY:More info

Metar Taf Metar & Taf Last 4 Metars F.Rules Stats Wind Profile Meteogram Temp Stats Airport Information Weather charts Add Link Nearby VenuesMetar ALERT Operation Metar Decoded Social comments